DLH221 LFPG-EDDF
Flight info
| Callsign | DLH221 |
|---|---|
| Flight time | 1h 15m |
| Altitude | 23000 |
| Route | RANUX6G RANUX DCT VALEK DCT LIPNI UN858 LIMGO Z111 RAMOB IMCOM1D |
| Aircraft | A359/H-SDE2E3GHIJ1J3J4J5LM1ORWXYZ/LB1D1 |
Departure
| Time | 2026-05-08 21:02 |
|---|---|
| Airport | Charles de Gaulle International Airport (LFPG) |
Arrival
| Time | 2026-05-08 22:17 |
|---|---|
| Airport | Frankfurt Main Airport (EDDF) |
| Time | Latitude | Longitude | Altitude | Speed | Heading |
|---|---|---|---|---|---|
| 2026-05-08 20:39 | 49.01545 | 2.51082 | 357 ft | 0 kts | 355° |
| 2026-05-08 20:50 | 49.01540 | 2.51082 | 362 ft | 2 kts | 355° |
| 2026-05-08 20:51 | 49.01523 | 2.51083 | 357 ft | 2 kts | 358° |
| 2026-05-08 20:51 | 49.01507 | 2.51083 | 357 ft | 2 kts | 1° |
| 2026-05-08 20:51 | 49.01490 | 2.51081 | 360 ft | 2 kts | 8° |
| 2026-05-08 20:51 | 49.01474 | 2.51075 | 360 ft | 2 kts | 32° |
| 2026-05-08 20:52 | 49.01465 | 2.51056 | 366 ft | 2 kts | 83° |
| 2026-05-08 20:52 | 49.01464 | 2.51048 | 357 ft | 0 kts | 87° |
| 2026-05-08 20:55 | 49.01464 | 2.51056 | 357 ft | 2 kts | 86° |
| 2026-05-08 20:56 | 49.01465 | 2.51068 | 364 ft | 0 kts | 86° |
| 2026-05-08 20:56 | 49.01466 | 2.51086 | 363 ft | 8 kts | 87° |
| 2026-05-08 20:56 | 49.01487 | 2.51239 | 366 ft | 17 kts | 57° |
| 2026-05-08 20:56 | 49.01608 | 2.51288 | 364 ft | 17 kts | 356° |
| 2026-05-08 20:57 | 49.01705 | 2.51277 | 364 ft | 13 kts | 355° |
| 2026-05-08 20:57 | 49.01788 | 2.51268 | 361 ft | 13 kts | 356° |
| 2026-05-08 20:57 | 49.01867 | 2.51258 | 367 ft | 0 kts | 355° |
| 2026-05-08 20:58 | 49.01887 | 2.51256 | 366 ft | 8 kts | 355° |
| 2026-05-08 20:58 | 49.01953 | 2.51258 | 363 ft | 11 kts | 12° |
| 2026-05-08 20:58 | 49.02021 | 2.51317 | 368 ft | 12 kts | 45° |
| 2026-05-08 20:59 | 49.02066 | 2.51435 | 365 ft | 14 kts | 69° |
| 2026-05-08 20:59 | 49.02075 | 2.51527 | 367 ft | 0 kts | 85° |
| 2026-05-08 20:59 | 49.02076 | 2.51539 | 367 ft | 3 kts | 85° |
| 2026-05-08 20:59 | 49.02078 | 2.51582 | 366 ft | 0 kts | 85° |
| 2026-05-08 21:00 | 49.02078 | 2.51583 | 366 ft | 0 kts | 85° |
| 2026-05-08 21:01 | 49.02079 | 2.51593 | 366 ft | 5 kts | 85° |
| 2026-05-08 21:01 | 49.02105 | 2.52079 | 366 ft | 105 kts | 85° |
| 2026-05-08 21:01 | 49.02190 | 2.53739 | 486 ft | 203 kts | 84° |
| 2026-05-08 21:02 | 49.02342 | 2.56208 | 1200 ft | 250 kts | 84° |
| 2026-05-08 21:02 | 49.02494 | 2.58868 | 2279 ft | 257 kts | 84° |
| 2026-05-08 21:02 | 49.02642 | 2.61553 | 3416 ft | 252 kts | 85° |
| 2026-05-08 21:02 | 49.02787 | 2.64223 | 4351 ft | 256 kts | 85° |
| 2026-05-08 21:03 | 49.02934 | 2.66963 | 5208 ft | 264 kts | 86° |
| 2026-05-08 21:03 | 49.03097 | 2.69888 | 5285 ft | 281 kts | 85° |
| 2026-05-08 21:03 | 49.03254 | 2.72807 | 5219 ft | 270 kts | 86° |
| 2026-05-08 21:03 | 49.03390 | 2.75605 | 5036 ft | 262 kts | 86° |
| 2026-05-08 21:04 | 49.03517 | 2.78377 | 5003 ft | 263 kts | 86° |
| 2026-05-08 21:04 | 49.03646 | 2.81156 | 4996 ft | 264 kts | 86° |
| 2026-05-08 21:04 | 49.03778 | 2.83946 | 4992 ft | 264 kts | 86° |
| 2026-05-08 21:04 | 49.03978 | 2.86720 | 4996 ft | 264 kts | 78° |
| 2026-05-08 21:05 | 49.04802 | 2.89234 | 5185 ft | 274 kts | 52° |
| 2026-05-08 21:05 | 49.06178 | 2.91324 | 5737 ft | 292 kts | 43° |
| 2026-05-08 21:05 | 49.07718 | 2.93386 | 6759 ft | 291 kts | 42° |
| 2026-05-08 21:05 | 49.09209 | 2.95383 | 7520 ft | 281 kts | 42° |
| 2026-05-08 21:06 | 49.10669 | 2.97362 | 7908 ft | 283 kts | 42° |
| 2026-05-08 21:06 | 49.12148 | 2.99378 | 8004 ft | 285 kts | 42° |
| 2026-05-08 21:06 | 49.13618 | 3.01403 | 8002 ft | 286 kts | 43° |
| 2026-05-08 21:06 | 49.14787 | 3.03837 | 8019 ft | 285 kts | 67° |
| 2026-05-08 21:07 | 49.15152 | 3.06762 | 8409 ft | 284 kts | 93° |
| 2026-05-08 21:07 | 49.14650 | 3.09685 | 9296 ft | 288 kts | 116° |
| 2026-05-08 21:07 | 49.13698 | 3.12394 | 10508 ft | 293 kts | 121° |
| 2026-05-08 21:07 | 49.12644 | 3.15161 | 11337 ft | 313 kts | 122° |
| 2026-05-08 21:08 | 49.11494 | 3.18143 | 11935 ft | 339 kts | 122° |
| 2026-05-08 21:08 | 49.10375 | 3.21399 | 12859 ft | 351 kts | 114° |
| 2026-05-08 21:08 | 49.09769 | 3.25041 | 13957 ft | 360 kts | 96° |
| 2026-05-08 21:08 | 49.09736 | 3.28896 | 14933 ft | 366 kts | 89° |
| 2026-05-08 21:09 | 49.09870 | 3.32792 | 15931 ft | 371 kts | 87° |
| 2026-05-08 21:09 | 49.10038 | 3.36758 | 16950 ft | 376 kts | 86° |
| 2026-05-08 21:09 | 49.10211 | 3.40753 | 17944 ft | 381 kts | 86° |
| 2026-05-08 21:09 | 49.10384 | 3.44803 | 18709 ft | 385 kts | 86° |
| 2026-05-08 21:10 | 49.10557 | 3.48920 | 19564 ft | 391 kts | 86° |
| 2026-05-08 21:10 | 49.10729 | 3.53090 | 20492 ft | 397 kts | 85° |
| 2026-05-08 21:10 | 49.10903 | 3.57325 | 21364 ft | 403 kts | 85° |
| 2026-05-08 21:10 | 49.11079 | 3.61630 | 22217 ft | 410 kts | 84° |
| 2026-05-08 21:11 | 49.11256 | 3.66002 | 22782 ft | 414 kts | 84° |
| 2026-05-08 21:11 | 49.11434 | 3.70421 | 22998 ft | 424 kts | 84° |
| 2026-05-08 21:11 | 49.11626 | 3.75055 | 22978 ft | 451 kts | 84° |
| 2026-05-08 21:11 | 49.11830 | 3.79911 | 22997 ft | 463 kts | 84° |
| 2026-05-08 21:12 | 49.12025 | 3.84768 | 22987 ft | 464 kts | 84° |
| 2026-05-08 21:12 | 49.12217 | 3.89738 | 22994 ft | 464 kts | 84° |
| 2026-05-08 21:12 | 49.12403 | 3.94664 | 22988 ft | 464 kts | 84° |
| 2026-05-08 21:12 | 49.12584 | 3.99512 | 23006 ft | 464 kts | 84° |
| 2026-05-08 21:13 | 49.12766 | 4.04424 | 22996 ft | 463 kts | 84° |
| 2026-05-08 21:13 | 49.12945 | 4.09337 | 22993 ft | 463 kts | 84° |
| 2026-05-08 21:13 | 49.13122 | 4.14250 | 22994 ft | 463 kts | 84° |
| 2026-05-08 21:13 | 49.13298 | 4.19159 | 22994 ft | 463 kts | 84° |
| 2026-05-08 21:14 | 49.13470 | 4.24064 | 22993 ft | 462 kts | 84° |
| 2026-05-08 21:14 | 49.13641 | 4.28969 | 22991 ft | 462 kts | 84° |
| 2026-05-08 21:14 | 49.13869 | 4.33840 | 22991 ft | 461 kts | 81° |
| 2026-05-08 21:14 | 49.14568 | 4.38609 | 22995 ft | 457 kts | 70° |
| 2026-05-08 21:15 | 49.15610 | 4.43189 | 22992 ft | 456 kts | 67° |
| 2026-05-08 21:15 | 49.16792 | 4.47674 | 22991 ft | 455 kts | 65° |
| 2026-05-08 21:15 | 49.18040 | 4.52097 | 22993 ft | 454 kts | 64° |
| 2026-05-08 21:15 | 49.19306 | 4.56517 | 22993 ft | 453 kts | 64° |
| 2026-05-08 21:16 | 49.20561 | 4.60929 | 22996 ft | 453 kts | 65° |
| 2026-05-08 21:16 | 49.21800 | 4.65362 | 22991 ft | 453 kts | 65° |
| 2026-05-08 21:16 | 49.23019 | 4.69804 | 22995 ft | 452 kts | 65° |
| 2026-05-08 21:16 | 49.24222 | 4.74249 | 22995 ft | 452 kts | 66° |
| 2026-05-08 21:17 | 49.25416 | 4.78700 | 22995 ft | 452 kts | 66° |
| 2026-05-08 21:17 | 49.26605 | 4.83160 | 22999 ft | 452 kts | 66° |
| 2026-05-08 21:17 | 49.27791 | 4.87617 | 23001 ft | 452 kts | 66° |
| 2026-05-08 21:17 | 49.28959 | 4.92014 | 23000 ft | 452 kts | 66° |
| 2026-05-08 21:18 | 49.30142 | 4.96468 | 23000 ft | 452 kts | 66° |
| 2026-05-08 21:18 | 49.31326 | 5.00930 | 22999 ft | 451 kts | 66° |
| 2026-05-08 21:18 | 49.32507 | 5.05392 | 23001 ft | 451 kts | 67° |
| 2026-05-08 21:18 | 49.33687 | 5.09855 | 23004 ft | 451 kts | 67° |
| 2026-05-08 21:19 | 49.34864 | 5.14317 | 23007 ft | 452 kts | 67° |
| 2026-05-08 21:19 | 49.36040 | 5.18781 | 23007 ft | 452 kts | 67° |
| 2026-05-08 21:19 | 49.37215 | 5.23249 | 23011 ft | 452 kts | 67° |
| 2026-05-08 21:19 | 49.38388 | 5.27718 | 23014 ft | 452 kts | 67° |
| 2026-05-08 21:20 | 49.39560 | 5.32193 | 23012 ft | 452 kts | 67° |
| 2026-05-08 21:20 | 49.40731 | 5.36671 | 23010 ft | 452 kts | 67° |
| 2026-05-08 21:20 | 49.41902 | 5.41158 | 23015 ft | 452 kts | 67° |
| 2026-05-08 21:20 | 49.43071 | 5.45646 | 23014 ft | 453 kts | 68° |
| 2026-05-08 21:21 | 49.44238 | 5.50134 | 23017 ft | 453 kts | 68° |
| 2026-05-08 21:21 | 49.45404 | 5.54633 | 23016 ft | 453 kts | 68° |
| 2026-05-08 21:21 | 49.46568 | 5.59129 | 23017 ft | 453 kts | 68° |
| 2026-05-08 21:21 | 49.47729 | 5.63626 | 23019 ft | 453 kts | 68° |
| 2026-05-08 21:22 | 49.48891 | 5.68133 | 23019 ft | 454 kts | 68° |
| 2026-05-08 21:22 | 49.50051 | 5.72641 | 23018 ft | 454 kts | 68° |
| 2026-05-08 21:22 | 49.51214 | 5.77166 | 23019 ft | 454 kts | 68° |
| 2026-05-08 21:22 | 49.52366 | 5.81688 | 23021 ft | 454 kts | 68° |
| 2026-05-08 21:23 | 49.53482 | 5.86252 | 23021 ft | 455 kts | 69° |
| 2026-05-08 21:23 | 49.54587 | 5.90812 | 23021 ft | 455 kts | 69° |
| 2026-05-08 21:23 | 49.55699 | 5.95384 | 23024 ft | 455 kts | 69° |
| 2026-05-08 21:23 | 49.56813 | 5.99938 | 23022 ft | 456 kts | 69° |
| 2026-05-08 21:24 | 49.57936 | 6.04512 | 23018 ft | 456 kts | 69° |
| 2026-05-08 21:24 | 49.59058 | 6.09074 | 23022 ft | 456 kts | 69° |
| 2026-05-08 21:24 | 49.60180 | 6.13639 | 23018 ft | 456 kts | 69° |
| 2026-05-08 21:24 | 49.61300 | 6.18206 | 23021 ft | 456 kts | 69° |
| 2026-05-08 21:25 | 49.62407 | 6.22729 | 23021 ft | 456 kts | 69° |
| 2026-05-08 21:25 | 49.63608 | 6.27261 | 23019 ft | 456 kts | 64° |
| 2026-05-08 21:25 | 49.65083 | 6.31598 | 23021 ft | 456 kts | 61° |
| 2026-05-08 21:25 | 49.66638 | 6.35861 | 23021 ft | 456 kts | 59° |
| 2026-05-08 21:26 | 49.68243 | 6.40086 | 23022 ft | 456 kts | 59° |
| 2026-05-08 21:26 | 49.69875 | 6.44299 | 23021 ft | 456 kts | 59° |
| 2026-05-08 21:26 | 49.71514 | 6.48508 | 23021 ft | 456 kts | 59° |
| 2026-05-08 21:26 | 49.73259 | 6.52579 | 23023 ft | 456 kts | 54° |
| 2026-05-08 21:27 | 49.75131 | 6.56549 | 23028 ft | 456 kts | 53° |
| 2026-05-08 21:27 | 49.77038 | 6.60479 | 23024 ft | 456 kts | 52° |
| 2026-05-08 21:27 | 49.78958 | 6.64379 | 23023 ft | 456 kts | 52° |
| 2026-05-08 21:27 | 49.80863 | 6.68228 | 23026 ft | 456 kts | 52° |
| 2026-05-08 21:28 | 49.82793 | 6.72132 | 23023 ft | 456 kts | 52° |
| 2026-05-08 21:28 | 49.84742 | 6.76086 | 23028 ft | 456 kts | 52° |
| 2026-05-08 21:28 | 49.86641 | 6.79954 | 23026 ft | 456 kts | 52° |
| 2026-05-08 21:28 | 49.88558 | 6.83871 | 23026 ft | 457 kts | 52° |
| 2026-05-08 21:29 | 49.90476 | 6.87801 | 23028 ft | 457 kts | 52° |
| 2026-05-08 21:29 | 49.92391 | 6.91736 | 23027 ft | 457 kts | 52° |
| 2026-05-08 21:29 | 49.94305 | 6.95672 | 23027 ft | 457 kts | 53° |
| 2026-05-08 21:29 | 49.96216 | 6.99610 | 23042 ft | 457 kts | 53° |
| 2026-05-08 21:30 | 49.98128 | 7.03554 | 23045 ft | 457 kts | 53° |
| 2026-05-08 21:30 | 50.00036 | 7.07496 | 23046 ft | 457 kts | 53° |
| 2026-05-08 21:30 | 50.01850 | 7.11546 | 23045 ft | 457 kts | 59° |
| 2026-05-08 21:30 | 50.03219 | 7.16012 | 23049 ft | 458 kts | 70° |
| 2026-05-08 21:31 | 50.04188 | 7.20719 | 23050 ft | 458 kts | 73° |
| 2026-05-08 21:31 | 50.05000 | 7.25503 | 23047 ft | 458 kts | 76° |
| 2026-05-08 21:31 | 50.05723 | 7.30338 | 23048 ft | 458 kts | 77° |
| 2026-05-08 21:31 | 50.06400 | 7.35165 | 23046 ft | 458 kts | 78° |
| 2026-05-08 21:32 | 50.07070 | 7.40015 | 23045 ft | 458 kts | 78° |
| 2026-05-08 21:32 | 50.07746 | 7.44867 | 23045 ft | 458 kts | 78° |
| 2026-05-08 21:32 | 50.08433 | 7.49710 | 23046 ft | 458 kts | 77° |
| 2026-05-08 21:32 | 50.09131 | 7.54560 | 23044 ft | 459 kts | 77° |
| 2026-05-08 21:33 | 50.09953 | 7.59359 | 23042 ft | 459 kts | 71° |
| 2026-05-08 21:33 | 50.11269 | 7.63880 | 23042 ft | 459 kts | 59° |
| 2026-05-08 21:33 | 50.13147 | 7.67813 | 23046 ft | 459 kts | 46° |
| 2026-05-08 21:33 | 50.15601 | 7.70986 | 23046 ft | 458 kts | 32° |
| 2026-05-08 21:34 | 50.18461 | 7.73110 | 23049 ft | 456 kts | 18° |
| 2026-05-08 21:34 | 50.21572 | 7.74076 | 23048 ft | 455 kts | 3° |
| 2026-05-08 21:34 | 50.24688 | 7.73890 | 22710 ft | 442 kts | 351° |
| 2026-05-08 21:34 | 50.27625 | 7.72627 | 21755 ft | 437 kts | 336° |
| 2026-05-08 21:35 | 50.30254 | 7.70301 | 20832 ft | 433 kts | 323° |
| 2026-05-08 21:35 | 50.32447 | 7.67116 | 19986 ft | 427 kts | 310° |
| 2026-05-08 21:35 | 50.34110 | 7.63314 | 19165 ft | 422 kts | 297° |
| 2026-05-08 21:35 | 50.35197 | 7.59084 | 18321 ft | 417 kts | 285° |
| 2026-05-08 21:36 | 50.35671 | 7.54640 | 17402 ft | 412 kts | 273° |
| 2026-05-08 21:36 | 50.35612 | 7.50180 | 16529 ft | 407 kts | 266° |
| 2026-05-08 21:36 | 50.35348 | 7.45786 | 15676 ft | 402 kts | 263° |
| 2026-05-08 21:36 | 50.34995 | 7.41469 | 14866 ft | 397 kts | 262° |
| 2026-05-08 21:37 | 50.34618 | 7.37259 | 14046 ft | 393 kts | 261° |
| 2026-05-08 21:37 | 50.34232 | 7.32994 | 13179 ft | 388 kts | 261° |
| 2026-05-08 21:37 | 50.33872 | 7.28902 | 12353 ft | 382 kts | 261° |
| 2026-05-08 21:37 | 50.33527 | 7.24823 | 11584 ft | 376 kts | 262° |
| 2026-05-08 21:38 | 50.33200 | 7.20783 | 11141 ft | 371 kts | 262° |
| 2026-05-08 21:38 | 50.32894 | 7.16883 | 11094 ft | 347 kts | 262° |
| 2026-05-08 21:38 | 50.32615 | 7.13267 | 11117 ft | 322 kts | 262° |
| 2026-05-08 21:38 | 50.32357 | 7.09909 | 11105 ft | 301 kts | 262° |
| 2026-05-08 21:39 | 50.32112 | 7.06747 | 11104 ft | 287 kts | 262° |
| 2026-05-08 21:39 | 50.31870 | 7.03662 | 11100 ft | 286 kts | 262° |
| 2026-05-08 21:39 | 50.31639 | 7.00575 | 11097 ft | 287 kts | 264° |
| 2026-05-08 21:39 | 50.31570 | 6.97454 | 11097 ft | 288 kts | 270° |
| 2026-05-08 21:40 | 50.31753 | 6.94335 | 11092 ft | 288 kts | 278° |
| 2026-05-08 21:40 | 50.32224 | 6.91290 | 11097 ft | 289 kts | 286° |
| 2026-05-08 21:40 | 50.32776 | 6.88263 | 11095 ft | 289 kts | 279° |
| 2026-05-08 21:41 | 50.32332 | 6.83208 | 11087 ft | 286 kts | 242° |
| 2026-05-08 21:41 | 50.31080 | 6.80806 | 11089 ft | 287 kts | 220° |
| 2026-05-08 21:41 | 50.29332 | 6.79366 | 11091 ft | 288 kts | 197° |
| 2026-05-08 21:41 | 50.27337 | 6.79094 | 11091 ft | 290 kts | 175° |
| 2026-05-08 21:42 | 50.25417 | 6.80059 | 11086 ft | 293 kts | 152° |
| 2026-05-08 21:42 | 50.23875 | 6.82137 | 11089 ft | 296 kts | 129° |
| 2026-05-08 21:42 | 50.22968 | 6.85029 | 11092 ft | 299 kts | 105° |
| 2026-05-08 21:42 | 50.22868 | 6.88264 | 11093 ft | 301 kts | 82° |
| 2026-05-08 21:43 | 50.23602 | 6.91308 | 11090 ft | 301 kts | 58° |
| 2026-05-08 21:43 | 50.24971 | 6.93777 | 11097 ft | 301 kts | 44° |
| 2026-05-08 21:43 | 50.26504 | 6.95994 | 11097 ft | 301 kts | 42° |
| 2026-05-08 21:43 | 50.28058 | 6.98199 | 11095 ft | 301 kts | 42° |
| 2026-05-08 21:44 | 50.29455 | 7.00623 | 11094 ft | 302 kts | 60° |
| 2026-05-08 21:44 | 50.30008 | 7.03741 | 11099 ft | 300 kts | 90° |
| 2026-05-08 21:44 | 50.29541 | 7.06840 | 11094 ft | 297 kts | 119° |
| 2026-05-08 21:44 | 50.28255 | 7.09390 | 11098 ft | 295 kts | 134° |
| 2026-05-08 21:45 | 50.26906 | 7.11815 | 11095 ft | 296 kts | 130° |
| 2026-05-08 21:45 | 50.25693 | 7.14426 | 11099 ft | 297 kts | 125° |
| 2026-05-08 21:45 | 50.24631 | 7.17143 | 11097 ft | 297 kts | 121° |
| 2026-05-08 21:45 | 50.23631 | 7.20010 | 11094 ft | 297 kts | 119° |
| 2026-05-08 21:46 | 50.22703 | 7.22854 | 11097 ft | 297 kts | 118° |
| 2026-05-08 21:46 | 50.21780 | 7.25789 | 11096 ft | 297 kts | 117° |
| 2026-05-08 21:46 | 50.20893 | 7.28666 | 11098 ft | 297 kts | 117° |
| 2026-05-08 21:46 | 50.20005 | 7.31575 | 11094 ft | 297 kts | 117° |
| 2026-05-08 21:47 | 50.19135 | 7.34506 | 11096 ft | 298 kts | 114° |
| 2026-05-08 21:47 | 50.18404 | 7.37530 | 11092 ft | 298 kts | 111° |
| 2026-05-08 21:47 | 50.17710 | 7.40575 | 11093 ft | 298 kts | 111° |
| 2026-05-08 21:47 | 50.17012 | 7.43610 | 11102 ft | 298 kts | 111° |
| 2026-05-08 21:48 | 50.16302 | 7.46646 | 11098 ft | 297 kts | 111° |
| 2026-05-08 21:48 | 50.15587 | 7.49674 | 11095 ft | 297 kts | 111° |
| 2026-05-08 21:48 | 50.14868 | 7.52691 | 11096 ft | 297 kts | 111° |
| 2026-05-08 21:48 | 50.14147 | 7.55709 | 11097 ft | 297 kts | 112° |
| 2026-05-08 21:49 | 50.13423 | 7.58729 | 11099 ft | 297 kts | 112° |
| 2026-05-08 21:49 | 50.12698 | 7.61749 | 11102 ft | 297 kts | 112° |
| 2026-05-08 21:49 | 50.11972 | 7.64766 | 11096 ft | 297 kts | 112° |
| 2026-05-08 21:49 | 50.11246 | 7.67778 | 11098 ft | 297 kts | 112° |
| 2026-05-08 21:50 | 50.10558 | 7.70811 | 11098 ft | 297 kts | 109° |
| 2026-05-08 21:50 | 50.09971 | 7.73877 | 10971 ft | 290 kts | 107° |
| 2026-05-08 21:50 | 50.09409 | 7.76890 | 10462 ft | 292 kts | 108° |
| 2026-05-08 21:50 | 50.08841 | 7.79896 | 9972 ft | 293 kts | 108° |
| 2026-05-08 21:51 | 50.08258 | 7.82935 | 9483 ft | 292 kts | 108° |
| 2026-05-08 21:51 | 50.07784 | 7.85989 | 8960 ft | 291 kts | 94° |
| 2026-05-08 21:51 | 50.08152 | 7.89048 | 8508 ft | 288 kts | 69° |
| 2026-05-08 21:51 | 50.08950 | 7.91890 | 8097 ft | 285 kts | 66° |
| 2026-05-08 21:52 | 50.09758 | 7.94700 | 7646 ft | 283 kts | 66° |
| 2026-05-08 21:52 | 50.10525 | 7.97519 | 7208 ft | 281 kts | 68° |
| 2026-05-08 21:52 | 50.11255 | 8.00326 | 6789 ft | 278 kts | 68° |
| 2026-05-08 21:52 | 50.11961 | 8.03117 | 6353 ft | 276 kts | 69° |
| 2026-05-08 21:53 | 50.12652 | 8.05896 | 5894 ft | 274 kts | 69° |
| 2026-05-08 21:53 | 50.13331 | 8.08653 | 5465 ft | 271 kts | 69° |
| 2026-05-08 21:53 | 50.13999 | 8.11381 | 5053 ft | 268 kts | 69° |
| 2026-05-08 21:53 | 50.14657 | 8.14079 | 4644 ft | 264 kts | 70° |
| 2026-05-08 21:54 | 50.15305 | 8.16738 | 4223 ft | 261 kts | 70° |
| 2026-05-08 21:54 | 50.15943 | 8.19370 | 4018 ft | 259 kts | 70° |
| 2026-05-08 21:54 | 50.16573 | 8.21975 | 3988 ft | 260 kts | 70° |
| 2026-05-08 21:54 | 50.17210 | 8.24616 | 3993 ft | 260 kts | 70° |
| 2026-05-08 21:55 | 50.17848 | 8.27260 | 3993 ft | 260 kts | 70° |
| 2026-05-08 21:55 | 50.18484 | 8.29896 | 3992 ft | 260 kts | 70° |
| 2026-05-08 21:55 | 50.19121 | 8.32541 | 3992 ft | 260 kts | 70° |
| 2026-05-08 21:56 | 50.20265 | 8.37884 | 3984 ft | 260 kts | 86° |
| 2026-05-08 21:56 | 50.19896 | 8.40604 | 3996 ft | 260 kts | 118° |
| 2026-05-08 21:56 | 50.18635 | 8.42569 | 3998 ft | 258 kts | 151° |
| 2026-05-08 21:56 | 50.16966 | 8.43189 | 4006 ft | 240 kts | 175° |
| 2026-05-08 21:57 | 50.15343 | 8.43316 | 4003 ft | 230 kts | 175° |
| 2026-05-08 21:57 | 50.13754 | 8.43608 | 3999 ft | 230 kts | 170° |
| 2026-05-08 21:57 | 50.12169 | 8.43864 | 3986 ft | 232 kts | 184° |
| 2026-05-08 21:57 | 50.10699 | 8.42882 | 3991 ft | 234 kts | 221° |
| 2026-05-08 21:58 | 50.09861 | 8.40736 | 4001 ft | 235 kts | 250° |
| 2026-05-08 21:58 | 50.09423 | 8.38271 | 3992 ft | 236 kts | 254° |
| 2026-05-08 21:58 | 50.08989 | 8.35808 | 3990 ft | 236 kts | 253° |
| 2026-05-08 21:58 | 50.08522 | 8.33394 | 3994 ft | 236 kts | 252° |
| 2026-05-08 21:59 | 50.08011 | 8.30965 | 3995 ft | 236 kts | 251° |
| 2026-05-08 21:59 | 50.07471 | 8.28553 | 3991 ft | 236 kts | 250° |
| 2026-05-08 21:59 | 50.06911 | 8.26144 | 3988 ft | 236 kts | 249° |
| 2026-05-08 21:59 | 50.06340 | 8.23741 | 3992 ft | 236 kts | 249° |
| 2026-05-08 22:00 | 50.05766 | 8.21354 | 3990 ft | 236 kts | 249° |
| 2026-05-08 22:00 | 50.05185 | 8.18959 | 3990 ft | 236 kts | 249° |
| 2026-05-08 22:00 | 50.04604 | 8.16570 | 3990 ft | 236 kts | 249° |
| 2026-05-08 22:00 | 50.04020 | 8.14173 | 3991 ft | 237 kts | 249° |
| 2026-05-08 22:01 | 50.03438 | 8.11790 | 3990 ft | 237 kts | 249° |
| 2026-05-08 22:01 | 50.02853 | 8.09387 | 3992 ft | 237 kts | 249° |
| 2026-05-08 22:01 | 50.02271 | 8.06993 | 3992 ft | 237 kts | 249° |
| 2026-05-08 22:01 | 50.01685 | 8.04593 | 3990 ft | 237 kts | 249° |
| 2026-05-08 22:02 | 50.01099 | 8.02198 | 3991 ft | 237 kts | 249° |
| 2026-05-08 22:02 | 50.00517 | 7.99811 | 3992 ft | 237 kts | 249° |
| 2026-05-08 22:02 | 49.99933 | 7.97408 | 3994 ft | 237 kts | 249° |
| 2026-05-08 22:02 | 49.99345 | 7.95018 | 3994 ft | 237 kts | 249° |
| 2026-05-08 22:03 | 49.98755 | 7.92625 | 3994 ft | 237 kts | 249° |
| 2026-05-08 22:03 | 49.98176 | 7.90267 | 3994 ft | 237 kts | 249° |
| 2026-05-08 22:03 | 49.97590 | 7.87875 | 3993 ft | 237 kts | 249° |
| 2026-05-08 22:03 | 49.96999 | 7.85480 | 3989 ft | 237 kts | 249° |
| 2026-05-08 22:04 | 49.96407 | 7.83086 | 3991 ft | 237 kts | 249° |
| 2026-05-08 22:04 | 49.95816 | 7.80701 | 3988 ft | 236 kts | 248° |
| 2026-05-08 22:04 | 49.94862 | 7.78673 | 3936 ft | 234 kts | 218° |
| 2026-05-08 22:04 | 49.93397 | 7.77654 | 3901 ft | 232 kts | 188° |
| 2026-05-08 22:05 | 49.91797 | 7.77730 | 3951 ft | 231 kts | 167° |
| 2026-05-08 22:05 | 49.90275 | 7.78483 | 4033 ft | 230 kts | 159° |
| 2026-05-08 22:05 | 49.88760 | 7.79283 | 4047 ft | 229 kts | 159° |
| 2026-05-08 22:05 | 49.87258 | 7.80101 | 4092 ft | 229 kts | 159° |
| 2026-05-08 22:06 | 49.85757 | 7.80944 | 4055 ft | 230 kts | 158° |
| 2026-05-08 22:06 | 49.84395 | 7.82125 | 3896 ft | 224 kts | 129° |
| 2026-05-08 22:06 | 49.83957 | 7.84370 | 3807 ft | 224 kts | 84° |
| 2026-05-08 22:06 | 49.84623 | 7.86538 | 3896 ft | 230 kts | 52° |
| 2026-05-08 22:07 | 49.85784 | 7.88237 | 3991 ft | 230 kts | 43° |
| 2026-05-08 22:07 | 49.86941 | 7.89935 | 4043 ft | 229 kts | 46° |
| 2026-05-08 22:07 | 49.87998 | 7.91783 | 4103 ft | 229 kts | 52° |
| 2026-05-08 22:07 | 49.88823 | 7.93841 | 4156 ft | 228 kts | 68° |
| 2026-05-08 22:08 | 49.89327 | 7.96174 | 4088 ft | 229 kts | 73° |
| 2026-05-08 22:08 | 49.89776 | 7.98523 | 3999 ft | 227 kts | 73° |
| 2026-05-08 22:08 | 49.90251 | 8.00859 | 3988 ft | 227 kts | 72° |
| 2026-05-08 22:08 | 49.90777 | 8.03174 | 3989 ft | 227 kts | 70° |
| 2026-05-08 22:09 | 49.91325 | 8.05465 | 3992 ft | 226 kts | 70° |
| 2026-05-08 22:09 | 49.91879 | 8.07755 | 3988 ft | 227 kts | 70° |
| 2026-05-08 22:09 | 49.92436 | 8.10049 | 3987 ft | 227 kts | 70° |
| 2026-05-08 22:09 | 49.92993 | 8.12345 | 3992 ft | 228 kts | 70° |
| 2026-05-08 22:10 | 49.93550 | 8.14648 | 3991 ft | 228 kts | 70° |
| 2026-05-08 22:10 | 49.94103 | 8.16947 | 3991 ft | 224 kts | 70° |
| 2026-05-08 22:10 | 49.94625 | 8.19128 | 4008 ft | 207 kts | 70° |
| 2026-05-08 22:10 | 49.95095 | 8.21124 | 4022 ft | 187 kts | 70° |
| 2026-05-08 22:11 | 49.95510 | 8.22909 | 4016 ft | 164 kts | 70° |
| 2026-05-08 22:11 | 49.95874 | 8.24474 | 4010 ft | 144 kts | 70° |
| 2026-05-08 22:11 | 49.96199 | 8.25871 | 4013 ft | 134 kts | 71° |
| 2026-05-08 22:11 | 49.96517 | 8.27238 | 3915 ft | 135 kts | 71° |
| 2026-05-08 22:12 | 49.96838 | 8.28592 | 3744 ft | 135 kts | 71° |
| 2026-05-08 22:12 | 49.97169 | 8.29974 | 3542 ft | 134 kts | 71° |
| 2026-05-08 22:12 | 49.97494 | 8.31326 | 3352 ft | 133 kts | 71° |
| 2026-05-08 22:12 | 49.97811 | 8.32652 | 3171 ft | 132 kts | 71° |
| 2026-05-08 22:13 | 49.98129 | 8.33987 | 2986 ft | 131 kts | 71° |
| 2026-05-08 22:13 | 49.98446 | 8.35317 | 2814 ft | 131 kts | 71° |
| 2026-05-08 22:13 | 49.98762 | 8.36642 | 2625 ft | 130 kts | 71° |
| 2026-05-08 22:13 | 49.99075 | 8.37955 | 2461 ft | 130 kts | 72° |
| 2026-05-08 22:14 | 49.99387 | 8.39265 | 2284 ft | 129 kts | 72° |
| 2026-05-08 22:14 | 49.99697 | 8.40564 | 2113 ft | 128 kts | 72° |
| 2026-05-08 22:14 | 50.00005 | 8.41855 | 1932 ft | 127 kts | 72° |
| 2026-05-08 22:14 | 50.00311 | 8.43144 | 1762 ft | 127 kts | 72° |
| 2026-05-08 22:15 | 50.00615 | 8.44428 | 1592 ft | 127 kts | 72° |
| 2026-05-08 22:15 | 50.00921 | 8.45713 | 1422 ft | 127 kts | 71° |
| 2026-05-08 22:15 | 50.01231 | 8.47013 | 1235 ft | 128 kts | 71° |
| 2026-05-08 22:15 | 50.01540 | 8.48310 | 1061 ft | 129 kts | 69° |
| 2026-05-08 22:16 | 50.01852 | 8.49618 | 882 ft | 129 kts | 68° |
| 2026-05-08 22:16 | 50.02153 | 8.50879 | 719 ft | 128 kts | 68° |
| 2026-05-08 22:16 | 50.02468 | 8.52206 | 542 ft | 127 kts | 68° |
| 2026-05-08 22:16 | 50.02776 | 8.53493 | 380 ft | 126 kts | 67° |
| 2026-05-08 22:17 | 50.03066 | 8.54714 | 358 ft | 113 kts | 70° |
| 2026-05-08 22:17 | 50.03310 | 8.55731 | 366 ft | 84 kts | 69° |
| 2026-05-08 22:17 | 50.03447 | 8.56245 | 370 ft | 13 kts | 46° |
| 2026-05-08 22:17 | 50.03517 | 8.56348 | 370 ft | 9 kts | 42° |
| 2026-05-08 22:18 | 50.03543 | 8.56382 | 372 ft | 0 kts | 39° |
| 2026-05-08 22:18 | 50.03544 | 8.56383 | 372 ft | 1 kts | 39° |
| 2026-05-08 22:18 | 50.03545 | 8.56386 | 372 ft | 0 kts | 39° |
| 2026-05-08 22:19 | 50.03568 | 8.56414 | 370 ft | 15 kts | 39° |
| 2026-05-08 22:19 | 50.03662 | 8.56530 | 371 ft | 20 kts | 38° |
| 2026-05-08 22:19 | 50.03772 | 8.56683 | 369 ft | 20 kts | 49° |
| 2026-05-08 22:19 | 50.03819 | 8.56839 | 369 ft | 17 kts | 71° |
| 2026-05-08 22:20 | 50.03863 | 8.57024 | 370 ft | 18 kts | 70° |
| 2026-05-08 22:20 | 50.03908 | 8.57211 | 371 ft | 20 kts | 69° |
| 2026-05-08 22:20 | 50.03959 | 8.57415 | 376 ft | 21 kts | 69° |
| 2026-05-08 22:20 | 50.04013 | 8.57648 | 374 ft | 25 kts | 69° |
| 2026-05-08 22:21 | 50.04066 | 8.57866 | 371 ft | 19 kts | 69° |
| 2026-05-08 22:21 | 50.04108 | 8.58042 | 374 ft | 18 kts | 70° |
| 2026-05-08 22:21 | 50.04164 | 8.58281 | 377 ft | 27 kts | 69° |
| 2026-05-08 22:21 | 50.04233 | 8.58563 | 379 ft | 28 kts | 69° |
| 2026-05-08 22:22 | 50.04279 | 8.58754 | 382 ft | 19 kts | 69° |
| 2026-05-08 22:22 | 50.04310 | 8.58883 | 384 ft | 21 kts | 69° |
| 2026-05-08 22:22 | 50.04375 | 8.59155 | 383 ft | 29 kts | 69° |
| 2026-05-08 22:22 | 50.04454 | 8.59438 | 382 ft | 24 kts | 45° |
| 2026-05-08 22:23 | 50.04600 | 8.59465 | 382 ft | 22 kts | 356° |
| 2026-05-08 22:23 | 50.04757 | 8.59414 | 381 ft | 17 kts | 341° |
| 2026-05-08 22:23 | 50.04766 | 8.59409 | 381 ft | 0 kts | 339° |
| 2026-05-08 22:24 | 50.04766 | 8.59408 | 381 ft | 1 kts | 339° |
| 2026-05-08 22:24 | 50.04819 | 8.59363 | 381 ft | 15 kts | 317° |
| 2026-05-08 22:24 | 50.04835 | 8.59206 | 380 ft | 17 kts | 252° |
| 2026-05-08 22:25 | 50.04785 | 8.59013 | 378 ft | 23 kts | 248° |
| 2026-05-08 22:25 | 50.04722 | 8.58750 | 378 ft | 28 kts | 249° |
| 2026-05-08 22:25 | 50.04648 | 8.58457 | 378 ft | 30 kts | 248° |
| 2026-05-08 22:25 | 50.04566 | 8.58131 | 377 ft | 35 kts | 249° |
| 2026-05-08 22:26 | 50.04487 | 8.57782 | 374 ft | 32 kts | 251° |
| 2026-05-08 22:26 | 50.04406 | 8.57447 | 374 ft | 35 kts | 250° |
| 2026-05-08 22:26 | 50.04325 | 8.57112 | 376 ft | 34 kts | 249° |
| 2026-05-08 22:26 | 50.04257 | 8.56831 | 373 ft | 11 kts | 249° |
| 2026-05-08 22:27 | 50.04233 | 8.56651 | 368 ft | 10 kts | 287° |
| 2026-05-08 22:27 | 50.04285 | 8.56611 | 368 ft | 12 kts | 345° |
| 2026-05-08 22:27 | 50.04363 | 8.56513 | 371 ft | 15 kts | 288° |
| 2026-05-08 22:27 | 50.04347 | 8.56402 | 368 ft | 18 kts | 250° |
| 2026-05-08 22:28 | 50.04295 | 8.56178 | 365 ft | 26 kts | 252° |
| 2026-05-08 22:28 | 50.04311 | 8.56081 | 368 ft | 5 kts | 327° |
| 2026-05-08 22:28 | 50.04389 | 8.56022 | 367 ft | 22 kts | 328° |
| 2026-05-08 22:28 | 50.04509 | 8.55946 | 370 ft | 12 kts | 17° |
| 2026-05-08 22:29 | 50.04583 | 8.56082 | 373 ft | 1 kts | 68° |
| 2026-05-08 22:29 | 50.04591 | 8.56116 | 368 ft | 11 kts | 70° |
| 2026-05-08 22:29 | 50.04626 | 8.56264 | 369 ft | 12 kts | 69° |
| 2026-05-08 22:29 | 50.04665 | 8.56304 | 369 ft | 7 kts | 2° |
| 2026-05-08 22:30 | 50.04722 | 8.56277 | 370 ft | 9 kts | 339° |
| 2026-05-08 22:30 | 50.04727 | 8.56274 | 372 ft | 0 kts | 339° |